Time;durP1;ratioP1;P1;durP2;ratioP2;P2;SDS_P1;SDS_P2;PMS_P1;PMS_P2;Temp;Humidity;BMP_temperature;BMP_pressure;BME280_temperature;BME280_humidity;BME280_pressure;Samples;Min_cycle;Max_cycle;Signal;HPM_P1;HPM_P2
2023/04/06 00:00:14;;;;;;;;;17.33;15.00;;;;;8.10;47.43;99477.53;5053407;28;45550;-77
2023/04/06 00:02:40;;;;;;;;;14.33;12.33;;;;;8.07;47.82;99483.72;5044284;28;45523;-77
2023/04/06 00:05:05;;;;;;;;;15.00;14.67;;;;;8.06;47.76;99487.25;5053773;28;45447;-77
2023/04/06 00:07:33;;;;;;;;;14.00;12.33;;;;;8.04;47.95;99478.53;5054097;28;46054;-77
2023/04/06 00:09:58;;;;;;;;;19.50;16.00;;;;;8.04;48.11;99486.41;5052300;28;45469;-77
2023/04/06 00:12:24;;;;;;;;;13.67;11.33;;;;;8.01;48.55;99483.03;5054622;28;45464;-77
2023/04/06 00:14:50;;;;;;;;;16.00;14.33;;;;;8.00;48.32;99483.91;5067023;28;45454;-77
2023/04/06 00:17:15;;;;;;;;;14.00;14.00;;;;;7.96;48.56;99484.88;5047156;28;47873;-77
2023/04/06 00:19:41;;;;;;;;;18.33;13.00;;;;;7.94;48.42;99481.44;5051572;28;45394;-77
2023/04/06 00:22:06;;;;;;;;;11.67;9.33;;;;;7.93;48.54;99482.31;5053135;28;45472;-77
2023/04/06 00:24:32;;;;;;;;;14.00;12.67;;;;;7.89;48.56;99480.66;5052930;28;45404;-77
2023/04/06 00:26:57;;;;;;;;;14.67;14.67;;;;;7.89;48.77;99481.53;5054328;28;45604;-77
2023/04/06 00:29:23;;;;;;;;;14.00;12.33;;;;;7.87;48.51;99482.50;5052316;28;45406;-77
2023/04/06 00:31:48;;;;;;;;;13.33;11.00;;;;;7.86;48.99;99486.00;5052606;28;45489;-77
2023/04/06 00:34:15;;;;;;;;;11.00;9.67;;;;;7.83;49.35;99481.69;5054333;28;45489;-77
2023/04/06 00:36:41;;;;;;;;;14.67;14.67;;;;;7.82;49.34;99479.97;5051997;28;46434;-77
2023/04/06 00:39:06;;;;;;;;;12.00;11.67;;;;;7.78;49.36;99478.31;5053749;28;46460;-77
2023/04/06 00:41:32;;;;;;;;;15.00;11.33;;;;;7.76;49.52;99480.09;5053340;28;45445;-77
2023/04/06 00:43:57;;;;;;;;;11.67;11.67;;;;;7.73;49.62;99477.53;5051497;28;45368;-77
2023/04/06 00:46:23;;;;;;;;;16.00;12.67;;;;;7.69;49.99;99475.91;5052697;28;45664;-77
2023/04/06 00:48:48;;;;;;;;;15.00;13.33;;;;;7.65;49.83;99474.22;5053906;28;45385;-77
2023/04/06 00:51:14;;;;;;;;;15.00;14.00;;;;;7.61;49.95;99473.44;5053002;28;45662;-77
2023/04/06 00:53:40;;;;;;;;;14.67;14.00;;;;;7.59;50.14;99474.38;5053607;28;45524;-77
2023/04/06 00:56:05;;;;;;;;;14.67;14.33;;;;;7.58;50.43;99473.50;5051722;28;46297;-77
2023/04/06 00:58:31;;;;;;;;;15.33;15.00;;;;;7.56;50.54;99472.66;5053297;28;45446;-77
2023/04/06 01:00:57;;;;;;;;;14.00;11.67;;;;;7.52;50.75;99465.78;5064732;28;45550;-77
2023/04/06 01:03:23;;;;;;;;;12.67;12.67;;;;;7.48;50.99;99463.25;5047884;28;45532;-77
2023/04/06 01:05:48;;;;;;;;;15.67;14.00;;;;;7.45;50.92;99472.06;5053053;28;45676;-77
2023/04/06 01:08:14;;;;;;;;;14.00;14.00;;;;;7.41;51.86;99469.53;5053618;28;45381;-77
2023/04/06 01:10:39;;;;;;;;;15.00;15.00;;;;;7.36;51.71;99467.03;5049040;28;45482;-77
2023/04/06 01:13:05;;;;;;;;;15.00;13.67;;;;;7.35;51.68;99460.03;5053235;28;45436;-77
2023/04/06 01:15:33;;;;;;;;;16.00;14.00;;;;;7.31;51.17;99461.88;5052417;28;46157;-77
2023/04/06 01:17:59;;;;;;;;;16.00;15.33;;;;;7.29;50.88;99462.78;5052925;28;45515;-77
2023/04/06 01:20:24;;;;;;;;;19.00;16.33;;;;;7.25;50.85;99464.59;5051860;28;45573;-77
2023/04/06 01:22:50;;;;;;;;;16.33;12.00;;;;;7.23;50.75;99461.16;5053730;28;45473;-77
2023/04/06 01:25:15;;;;;;;;;16.00;14.67;;;;;7.17;50.28;99458.69;5049127;28;46880;-77
2023/04/06 01:27:41;;;;;;;;;18.67;15.33;;;;;7.12;49.79;99457.03;5053473;28;45491;-77
2023/04/06 01:30:07;;;;;;;;;17.33;15.33;;;;;7.09;49.99;99463.19;5052827;28;45572;-77
2023/04/06 01:32:33;;;;;;;;;14.33;13.33;;;;;7.06;51.09;99465.88;5052260;28;45771;-77
2023/04/06 01:34:58;;;;;;;;;20.33;15.67;;;;;7.02;51.15;99466.84;5052322;28;45493;-77
2023/04/06 01:37:23;;;;;;;;;16.00;15.67;;;;;7.00;50.67;99464.25;5048298;28;45539;-77
2023/04/06 01:39:50;;;;;;;;;17.67;14.67;;;;;6.98;50.89;99466.06;5049243;28;45411;-77
2023/04/06 01:42:16;;;;;;;;;19.67;15.67;;;;;6.96;50.56;99465.22;5048631;28;45575;-77
2023/04/06 01:44:41;;;;;;;;;14.67;13.00;;;;;6.93;51.06;99467.03;5052453;28;45481;-77
2023/04/06 01:47:06;;;;;;;;;19.33;14.33;;;;;6.90;50.88;99464.47;5052706;28;45432;-77
2023/04/06 01:49:32;;;;;;;;;19.33;13.67;;;;;6.88;51.16;99464.50;5052782;28;45344;-77
2023/04/06 01:51:57;;;;;;;;;12.33;9.67;;;;;6.85;52.22;99455.84;5052664;28;45580;-77
2023/04/06 01:54:23;;;;;;;;;17.67;16.33;;;;;6.84;52.51;99462.84;5050619;28;47991;-77
2023/04/06 01:56:50;;;;;;;;;20.67;17.33;;;;;6.82;52.68;99461.16;5042228;28;45392;-77
2023/04/06 01:59:15;;;;;;;;;18.00;17.33;;;;;6.79;52.52;99458.56;5043396;28;45848;-77
2023/04/06 02:01:41;;;;;;;;;17.67;16.33;;;;;6.80;52.91;99462.94;5050855;28;45526;-77
2023/04/06 02:04:06;;;;;;;;;10.00;8.00;;;;;6.74;53.91;99470.91;5050700;28;46357;-77
2023/04/06 02:06:32;;;;;;;;;18.67;15.67;;;;;6.64;53.31;99467.59;5048470;28;45532;-77
2023/04/06 02:08:57;;;;;;;;;17.67;15.00;;;;;6.52;53.46;99473.94;5040588;28;45522;-77
2023/04/06 02:11:22;;;;;;;;;14.00;10.33;;;;;6.46;53.18;99476.66;5052516;28;45500;-77
2023/04/06 02:13:48;;;;;;;;;20.33;18.00;;;;;6.38;53.78;99480.28;5051383;28;47502;-77
2023/04/06 02:16:14;;;;;;;;;18.33;18.33;;;;;6.34;53.33;99478.63;5052153;28;45562;-77
2023/04/06 02:18:40;;;;;;;;;11.67;11.67;;;;;6.26;53.17;99477.00;5051791;28;45420;-77
2023/04/06 02:21:05;;;;;;;;;15.33;14.00;;;;;6.20;53.59;99471.03;5064989;28;45490;-77
2023/04/06 02:23:30;;;;;;;;;17.00;17.00;;;;;6.12;54.80;99473.75;5052846;28;46560;-77
2023/04/06 02:25:56;;;;;;;;;17.00;14.33;;;;;6.08;54.04;99465.97;5051706;28;45359;-77
2023/04/06 02:28:21;;;;;;;;;12.33;11.00;;;;;6.02;54.31;99460.84;5045786;28;45803;-77
2023/04/06 02:30:46;;;;;;;;;18.00;15.00;;;;;5.98;53.71;99473.13;5052971;28;45543;-77
2023/04/06 02:33:12;;;;;;;;;14.33;13.00;;;;;5.97;53.72;99470.53;5054674;28;47401;-77
2023/04/06 02:35:37;;;;;;;;;13.33;13.33;;;;;5.95;53.79;99470.53;5054740;28;45417;-77
2023/04/06 02:38:03;;;;;;;;;26.67;19.00;;;;;5.95;53.80;99474.03;5056221;28;45476;-76
2023/04/06 02:40:28;;;;;;;;;20.33;19.00;;;;;5.97;54.18;99470.53;5053172;28;45389;-76
2023/04/06 02:42:53;;;;;;;;;18.00;17.00;;;;;5.94;53.98;99467.06;5055626;28;45394;-77
2023/04/06 02:45:20;;;;;;;;;13.67;13.67;;;;;5.95;53.89;99467.91;5050232;28;45329;-77
2023/04/06 02:47:45;;;;;;;;;13.00;12.00;;;;;5.95;53.79;99474.03;5070376;28;45408;-76
2023/04/06 02:50:11;;;;;;;;;15.67;14.00;;;;;5.97;54.13;99465.28;5052314;28;45514;-77
2023/04/06 02:52:36;;;;;;;;;17.33;15.67;;;;;5.98;54.05;99470.50;5053859;28;46321;-77
2023/04/06 02:55:01;;;;;;;;;20.67;14.00;;;;;6.00;54.21;99473.97;5056438;28;45397;-77
2023/04/06 02:57:27;;;;;;;;;20.00;16.67;;;;;5.99;53.75;99472.22;5051241;28;45501;-77
2023/04/06 02:59:52;;;;;;;;;14.00;13.67;;;;;6.01;53.80;99478.31;5055148;28;45372;-76
2023/04/06 03:02:18;;;;;;;;;17.33;17.33;;;;;6.00;53.66;99470.47;5055697;28;45442;-77
2023/04/06 03:04:44;;;;;;;;;18.00;16.33;;;;;6.00;53.38;99467.84;5051555;28;45338;-77
2023/04/06 03:07:09;;;;;;;;;17.67;16.67;;;;;5.97;53.69;99471.38;5043222;28;45543;-77
2023/04/06 03:09:37;;;;;;;;;0.00;0.00;;;;;5.97;53.89;99475.75;5052450;28;45931;-76
2023/04/06 03:12:02;;;;;;;;;14.00;13.00;;;;;5.96;53.66;99474.88;5068753;27;46810;-75
2023/04/06 03:14:28;;;;;;;;;13.33;12.67;;;;;5.93;53.80;99473.19;5054320;28;45472;-76
2023/04/06 03:16:53;;;;;;;;;16.67;16.00;;;;;5.94;53.86;99477.53;5057577;28;45973;-76
2023/04/06 03:19:19;;;;;;;;;19.33;17.00;;;;;5.93;54.58;99481.03;5056063;27;45524;-76
2023/04/06 03:21:44;;;;;;;;;13.67;13.67;;;;;5.92;54.55;99479.28;5053672;28;45372;-77
2023/04/06 03:24:10;;;;;;;;;14.33;13.00;;;;;5.91;55.20;99482.78;5062900;28;45374;-76
2023/04/06 03:26:35;;;;;;;;;18.00;13.00;;;;;5.91;55.30;99489.78;5057137;28;45629;-76
2023/04/06 03:29:00;;;;;;;;;17.67;17.67;;;;;5.89;56.16;99479.34;5055277;28;45516;-77
2023/04/06 03:31:26;;;;;;;;;18.00;18.00;;;;;5.88;56.43;99481.94;5054335;27;45574;-77
2023/04/06 03:33:52;;;;;;;;;18.67;16.00;;;;;5.85;56.29;99482.88;5072016;27;45622;-77
2023/04/06 03:36:17;;;;;;;;;21.00;18.33;;;;;5.84;56.39;99486.38;5039991;28;45606;-76
2023/04/06 03:38:43;;;;;;;;;17.33;17.33;;;;;5.85;56.43;99482.00;5053713;28;45569;-76
2023/04/06 03:41:08;;;;;;;;;22.33;16.67;;;;;5.82;56.09;99482.91;5054615;28;45616;-77
2023/04/06 03:43:34;;;;;;;;;16.00;16.00;;;;;5.82;56.49;99479.44;5070523;28;45544;-76
2023/04/06 03:45:59;;;;;;;;;23.33;18.00;;;;;5.81;56.87;99485.56;5052958;28;45542;-76
2023/04/06 03:48:25;;;;;;;;;21.00;20.00;;;;;5.77;56.56;99484.72;5054209;28;45435;-76
2023/04/06 03:50:50;;;;;;;;;22.00;20.67;;;;;5.77;56.71;99483.88;5053991;28;45397;-76
2023/04/06 03:53:15;;;;;;;;;15.67;15.67;;;;;5.74;56.65;99482.16;5055025;28;45422;-77
2023/04/06 03:55:41;;;;;;;;;21.00;17.33;;;;;5.74;56.60;99484.78;5068774;27;46057;-77
2023/04/06 03:58:06;;;;;;;;;19.00;17.33;;;;;5.74;56.50;99489.13;5054850;28;45470;-77
2023/04/06 04:00:32;;;;;;;;;18.00;17.00;;;;;5.73;56.65;99490.88;5052454;28;45664;-76
2023/04/06 04:02:58;;;;;;;;;22.67;19.00;;;;;5.73;56.43;99495.25;5045297;28;45357;-77
2023/04/06 04:05:25;;;;;;;;;19.00;17.33;;;;;5.74;56.23;99496.97;5053695;28;45607;-76
2023/04/06 04:07:51;;;;;;;;;23.00;17.00;;;;;5.74;56.05;99502.22;5054340;28;45553;-76
2023/04/06 04:10:17;;;;;;;;;21.33;17.33;;;;;5.73;56.01;99505.72;5052931;28;46177;-77
2023/04/06 04:12:42;;;;;;;;;19.00;17.00;;;;;5.73;55.73;99503.09;5048259;28;45372;-77
2023/04/06 04:15:08;;;;;;;;;15.00;14.00;;;;;5.73;55.73;99508.34;5052234;28;45503;-77
2023/04/06 04:17:33;;;;;;;;;17.67;17.67;;;;;5.72;55.63;99517.94;5044337;28;45517;-76
2023/04/06 04:19:59;;;;;;;;;17.00;14.33;;;;;5.71;55.79;99524.06;5051294;28;48009;-76
2023/04/06 04:22:24;;;;;;;;;16.67;16.67;;;;;5.72;55.70;99517.06;5053907;28;45486;-77
2023/04/06 04:24:50;;;;;;;;;17.33;16.00;;;;;5.71;56.32;99520.56;5074844;27;45770;-76
2023/04/06 04:27:15;;;;;;;;;21.00;18.33;;;;;5.68;55.97;99515.41;5054002;28;45352;-76
2023/04/06 04:29:40;;;;;;;;;18.00;18.00;;;;;5.65;56.29;99515.44;5052995;28;46334;-76
2023/04/06 04:32:06;;;;;;;;;19.00;18.00;;;;;5.64;57.28;99522.44;5069044;28;45314;-75
2023/04/06 04:34:32;;;;;;;;;23.00;20.00;;;;;5.63;57.86;99525.06;5052313;28;45629;-76
2023/04/06 04:36:58;;;;;;;;;19.67;18.00;;;;;5.60;58.04;99531.19;5053507;28;45674;-76
2023/04/06 04:39:23;;;;;;;;;20.00;20.00;;;;;5.61;58.19;99530.31;5046920;28;48155;-77
2023/04/06 04:41:49;;;;;;;;;17.33;14.67;;;;;5.60;57.81;99524.22;5051324;28;45498;-76
2023/04/06 04:44:14;;;;;;;;;15.33;14.67;;;;;5.59;56.71;99532.94;5045086;28;45414;-76
2023/04/06 04:46:41;;;;;;;;;21.00;16.00;;;;;5.59;56.12;99534.69;5068286;28;45447;-77
2023/04/06 04:49:06;;;;;;;;;21.33;17.00;;;;;5.58;56.06;99539.06;5046892;28;46628;-76
2023/04/06 04:51:32;;;;;;;;;16.00;14.33;;;;;5.56;55.85;99539.94;5042291;28;45525;-77
2023/04/06 04:53:58;;;;;;;;;16.67;14.67;;;;;5.52;56.13;99546.13;5058159;28;45500;-77
2023/04/06 04:56:23;;;;;;;;;15.00;14.33;;;;;5.51;55.71;99540.03;5050290;28;45492;-76
2023/04/06 04:58:49;;;;;;;;;16.33;14.67;;;;;5.49;56.01;99536.56;5051600;28;47848;-76
2023/04/06 05:01:14;;;;;;;;;16.67;16.33;;;;;5.48;55.88;99549.66;5051017;28;45480;-76
2023/04/06 05:03:40;;;;;;;;;19.33;19.33;;;;;5.45;55.85;99547.94;5047685;28;45694;-76
2023/04/06 05:06:05;;;;;;;;;17.00;15.67;;;;;5.42;55.90;99553.22;5052665;28;45474;-76
2023/04/06 05:08:31;;;;;;;;;18.33;16.67;;;;;5.39;56.03;99549.75;5053364;28;46688;-77
2023/04/06 05:10:57;;;;;;;;;21.00;16.00;;;;;5.38;56.26;99555.88;5052015;28;45855;-77
2023/04/06 05:13:22;;;;;;;;;23.33;20.00;;;;;5.36;56.28;99553.31;5050161;28;45366;-77
2023/04/06 05:15:48;;;;;;;;;21.67;17.00;;;;;5.32;55.91;99553.34;5048656;28;45594;-77
2023/04/06 05:18:13;;;;;;;;;18.67;18.33;;;;;5.30;55.87;99565.56;5059295;27;45410;-77
2023/04/06 05:20:39;;;;;;;;;20.33;19.33;;;;;5.30;56.27;99566.44;5056829;28;45448;-77
2023/04/06 05:23:04;;;;;;;;;11.00;8.00;;;;;5.32;56.27;99571.66;5047584;28;45463;-78
2023/04/06 05:25:30;;;;;;;;;22.33;19.00;;;;;5.34;56.19;99568.16;5048852;28;45371;-77
2023/04/06 05:27:56;;;;;;;;;21.33;16.00;;;;;5.34;56.11;99570.75;5046123;28;45562;-77
2023/04/06 05:30:21;;;;;;;;;24.33;17.67;;;;;5.35;56.45;99572.50;5061662;28;45628;-77
2023/04/06 05:32:47;;;;;;;;;23.00;20.67;;;;;5.39;56.27;99575.91;5043994;28;45485;-78
2023/04/06 05:35:13;;;;;;;;;26.00;21.33;;;;;5.41;56.37;99575.00;5050137;28;45415;-77
2023/04/06 05:37:39;;;;;;;;;20.00;18.00;;;;;5.45;56.47;99571.47;5042582;28;46201;-77
2023/04/06 05:40:05;;;;;;;;;25.00;19.00;;;;;5.49;56.39;99573.19;5048786;28;45519;-77
2023/04/06 05:42:42;;;;;;;;;21.33;21.00;;;;;5.53;56.23;99574.84;5052109;28;45399;-79
2023/04/06 05:45:09;;;;;;;;;18.67;16.33;;;;;5.58;56.24;99578.28;5050823;28;45528;-77
2023/04/06 05:47:35;;;;;;;;;20.33;18.33;;;;;5.60;56.39;99580.88;5056924;28;46918;-77
2023/04/06 05:50:00;;;;;;;;;20.33;20.33;;;;;5.65;56.36;99580.84;5051227;28;45364;-79
2023/04/06 05:52:25;;;;;;;;;25.00;20.67;;;;;5.67;56.07;99581.69;5050340;28;45434;-79
2023/04/06 05:54:52;;;;;;;;;30.67;22.33;;;;;5.70;55.99;99582.47;5054113;28;45496;-79
2023/04/06 05:57:18;;;;;;;;;29.00;22.33;;;;;5.73;56.26;99582.44;5045993;28;45595;-77
2023/04/06 05:59:43;;;;;;;;;26.00;23.00;;;;;5.76;55.98;99582.41;5064418;28;45404;-77
2023/04/06 06:02:09;;;;;;;;;34.00;28.00;;;;;5.82;56.17;99581.47;5043548;28;45544;-78
2023/04/06 06:04:34;;;;;;;;;24.67;23.00;;;;;5.85;55.93;99584.91;5054761;28;45441;-78
2023/04/06 06:07:00;;;;;;;;;27.67;25.33;;;;;5.88;56.00;99586.59;5043520;28;45628;-78
2023/04/06 06:09:26;;;;;;;;;20.33;17.00;;;;;5.92;55.97;99583.09;5055021;28;45401;-76
2023/04/06 06:11:51;;;;;;;;;30.33;26.33;;;;;5.97;55.90;99586.53;5053890;28;45305;-78
2023/04/06 06:14:17;;;;;;;;;23.33;20.67;;;;;6.01;56.07;99584.75;5050381;28;45920;-78
2023/04/06 06:16:42;;;;;;;;;25.00;22.33;;;;;6.05;55.82;99589.88;5053798;28;45973;-78
2023/04/06 06:19:07;;;;;;;;;22.67;19.33;;;;;6.07;55.87;99582.88;5088600;27;45337;-76
2023/04/06 06:21:33;;;;;;;;;25.00;24.33;;;;;6.11;56.02;99581.09;5057243;28;45707;-79
2023/04/06 06:23:58;;;;;;;;;31.00;25.00;;;;;6.16;56.18;99574.91;5066517;28;45458;-78
2023/04/06 06:26:24;;;;;;;;;28.33;22.00;;;;;6.20;56.05;99579.19;5051495;28;46016;-78
2023/04/06 06:28:50;;;;;;;;;23.33;23.00;;;;;6.25;55.73;99582.59;5054212;28;45422;-78
2023/04/06 06:31:16;;;;;;;;;29.67;25.33;;;;;6.32;55.66;99579.91;5052059;28;45502;-78
2023/04/06 06:33:41;;;;;;;;;32.67;28.67;;;;;6.41;55.81;99584.97;5066925;28;45637;-78
2023/04/06 06:36:07;;;;;;;;;27.33;26.00;;;;;6.49;55.72;99573.50;5051653;28;46824;-78
2023/04/06 06:38:32;;;;;;;;;29.67;25.67;;;;;6.57;55.50;99581.22;5050065;28;45487;-78
2023/04/06 06:40:58;;;;;;;;;27.33;24.67;;;;;6.60;55.42;99576.81;5045355;28;45868;-79
2023/04/06 06:43:23;;;;;;;;;35.67;27.67;;;;;6.65;55.25;99567.13;5042769;28;45410;-78
2023/04/06 06:45:49;;;;;;;;;28.00;25.00;;;;;6.71;55.16;99571.38;5047468;28;45463;-78
2023/04/06 06:48:15;;;;;;;;;24.67;23.67;;;;;6.78;55.15;99573.00;5043573;28;45416;-78
2023/04/06 06:50:40;;;;;;;;;28.67;24.67;;;;;6.85;54.93;99571.16;5054047;28;45496;-78
2023/04/06 06:53:06;;;;;;;;;27.33;17.33;;;;;6.90;54.84;99567.53;5053914;28;45413;-78
2023/04/06 06:55:31;;;;;;;;;37.33;29.00;;;;;6.96;54.29;99569.19;5054033;28;46120;-78
2023/04/06 06:57:57;;;;;;;;;27.33;24.33;;;;;7.04;54.31;99563.81;5053012;28;45426;-77
2023/04/06 07:00:22;;;;;;;;;41.00;36.00;;;;;7.14;54.50;99571.47;5058013;28;45514;-78
2023/04/06 07:02:48;;;;;;;;;29.67;26.67;;;;;7.27;54.27;99569.47;5049483;28;45366;-79
2023/04/06 07:05:15;;;;;;;;;32.00;28.33;;;;;7.38;53.76;99564.00;5058646;28;46588;-77
2023/04/06 07:07:40;;;;;;;;;28.00;22.33;;;;;7.45;53.78;99565.63;5077760;27;45589;-78
2023/04/06 07:10:07;;;;;;;;;25.67;24.33;;;;;7.55;53.58;99565.38;5048050;28;45509;-77
2023/04/06 07:12:33;;;;;;;;;26.33;22.67;;;;;7.64;53.60;99566.97;5053961;28;45352;-77
2023/04/06 07:14:58;;;;;;;;;21.00;20.67;;;;;7.74;53.39;99560.63;5053457;28;45986;-77
2023/04/06 07:17:24;;;;;;;;;26.67;23.67;;;;;7.84;53.09;99563.91;5054300;28;45459;-78
2023/04/06 07:19:52;;;;;;;;;27.00;24.00;;;;;7.92;52.90;99560.22;5060057;27;45456;-78
2023/04/06 07:22:17;;;;;;;;;23.33;22.00;;;;;7.99;52.70;99556.56;5044249;28;45363;-77
2023/04/06 07:24:43;;;;;;;;;18.33;18.33;;;;;8.07;52.37;99562.50;5052186;28;45897;-78
2023/04/06 07:27:08;;;;;;;;;22.00;22.00;;;;;8.18;52.23;99553.53;5054733;28;45397;-78
2023/04/06 07:29:34;;;;;;;;;28.00;22.33;;;;;8.28;51.88;99549.75;5065011;28;45470;-78
2023/04/06 07:32:00;;;;;;;;;34.00;24.67;;;;;8.39;52.13;99556.50;5054286;28;45431;-77
2023/04/06 07:34:25;;;;;;;;;26.33;22.00;;;;;8.47;52.02;99540.56;5053606;28;45536;-78
2023/04/06 07:36:52;;;;;;;;;29.00;25.67;;;;;8.58;51.53;99546.41;5061152;27;45372;-78
2023/04/06 07:39:18;;;;;;;;;25.67;24.67;;;;;8.66;51.37;99541.84;5053197;28;45417;-77
2023/04/06 07:41:43;;;;;;;;;31.67;26.00;;;;;8.75;50.95;99546.84;5050480;28;45506;-77
2023/04/06 07:44:08;;;;;;;;;30.33;25.67;;;;;8.83;50.94;99543.16;5054449;28;46204;-78
2023/04/06 07:46:35;;;;;;;;;23.67;21.33;;;;;8.91;50.76;99541.19;5044943;28;45349;-77
2023/04/06 07:49:01;;;;;;;;;25.67;25.00;;;;;9.01;50.86;99556.69;5053533;28;45390;-78
2023/04/06 07:51:26;;;;;;;;;26.67;25.33;;;;;9.09;50.75;99551.19;5048512;28;45500;-77
2023/04/06 07:53:52;;;;;;;;;28.33;25.33;;;;;9.19;50.51;99551.84;5044770;28;45495;-77
2023/04/06 07:56:17;;;;;;;;;31.00;25.33;;;;;9.24;50.45;99553.41;5068976;27;45634;-78
2023/04/06 07:58:43;;;;;;;;;18.33;17.67;;;;;9.31;50.37;99557.59;5054269;28;45396;-77
2023/04/06 08:01:08;;;;;;;;;26.67;23.67;;;;;9.35;49.96;99548.72;5068112;28;45425;-77
2023/04/06 08:03:35;;;;;;;;;26.67;22.00;;;;;9.41;49.43;99550.31;5052683;28;47478;-77
2023/04/06 08:06:01;;;;;;;;;20.33;20.33;;;;;9.41;49.79;99550.31;5065857;28;45451;-77
2023/04/06 08:08:26;;;;;;;;;26.00;23.00;;;;;9.46;49.70;99551.03;5047671;28;45392;-78
2023/04/06 08:10:52;;;;;;;;;23.33;20.00;;;;;9.44;49.09;99548.47;5058879;28;45533;-77
2023/04/06 08:13:17;;;;;;;;;26.00;21.33;;;;;9.44;49.08;99551.09;5059563;28;45486;-78
2023/04/06 08:15:43;;;;;;;;;20.00;18.33;;;;;9.48;49.14;99546.59;5055620;28;45460;-78
2023/04/06 08:18:09;;;;;;;;;23.00;20.00;;;;;9.49;49.13;99545.69;5053697;28;45416;-78
2023/04/06 08:20:35;;;;;;;;;19.67;18.00;;;;;9.55;48.95;99547.31;5052819;28;45515;-77
2023/04/06 08:23:00;;;;;;;;;18.00;16.67;;;;;9.56;48.78;99549.84;5044296;28;46424;-78
2023/04/06 08:25:26;;;;;;;;;22.67;19.33;;;;;9.62;48.98;99552.31;5046992;28;45432;-78
2023/04/06 08:27:51;;;;;;;;;23.67;21.33;;;;;9.66;48.89;99546.06;5042847;28;45495;-78
2023/04/06 08:30:18;;;;;;;;;25.67;21.33;;;;;9.74;48.72;99551.09;5047118;28;45447;-78
2023/04/06 08:32:47;;;;;;;;;21.00;18.33;;;;;9.80;48.19;99550.91;5042558;28;45345;-78
2023/04/06 08:35:13;;;;;;;;;26.00;25.00;;;;;9.86;48.18;99544.63;5050248;28;45482;-77
2023/04/06 08:37:39;;;;;;;;;23.00;20.33;;;;;9.90;47.80;99540.94;5052704;28;45468;-77
2023/04/06 08:40:05;;;;;;;;;24.00;19.33;;;;;9.95;47.91;99547.81;5053050;28;45458;-78
2023/04/06 08:42:33;;;;;;;;;22.00;20.67;;;;;10.01;48.03;99546.78;5049852;28;46746;-78
2023/04/06 08:44:59;;;;;;;;;19.00;19.00;;;;;10.10;47.80;99549.09;5052861;28;45430;-78
2023/04/06 08:47:25;;;;;;;;;20.00;19.33;;;;;10.13;47.33;99541.97;5048792;28;45351;-77
2023/04/06 08:49:52;;;;;;;;;22.33;20.00;;;;;10.18;46.80;99544.47;5048777;28;45349;-78
2023/04/06 08:52:18;;;;;;;;;16.67;16.33;;;;;10.25;46.68;99547.78;5059712;28;46293;-78
2023/04/06 08:54:44;;;;;;;;;19.33;17.67;;;;;10.33;46.74;99548.44;5069479;27;45433;-78
2023/04/06 08:57:10;;;;;;;;;16.33;14.33;;;;;10.39;46.19;99545.59;5047224;28;45422;-78
2023/04/06 08:59:36;;;;;;;;;16.00;14.67;;;;;10.45;46.55;99540.09;5057517;28;45486;-79
2023/04/06 09:02:05;;;;;;;;;15.33;15.00;;;;;10.48;46.52;99540.00;5052176;28;47278;-78
2023/04/06 09:04:32;;;;;;;;;15.50;15.00;;;;;10.53;46.40;99538.09;5053384;28;45479;-78
2023/04/06 09:06:58;;;;;;;;;19.67;15.67;;;;;10.57;46.30;99537.06;5053337;28;45743;-78
2023/04/06 09:09:24;;;;;;;;;14.33;13.33;;;;;10.63;45.82;99536.00;5059855;28;45476;-78
2023/04/06 09:11:51;;;;;;;;;14.00;13.33;;;;;10.68;45.64;99531.44;5065869;27;45478;-78
2023/04/06 09:14:32;;;;;;;;;15.33;14.00;;;;;10.74;45.46;99533.84;5046976;28;45433;-78
2023/04/06 09:16:58;;;;;;;;;13.00;12.33;;;;;10.80;44.93;99525.75;5058725;28;45523;-78
2023/04/06 09:19:23;;;;;;;;;14.67;13.00;;;;;10.87;45.08;99534.31;5053363;28;45463;-78
2023/04/06 09:21:49;;;;;;;;;16.67;14.00;;;;;10.93;45.16;99527.03;5052621;28;46511;-78
2023/04/06 09:24:14;;;;;;;;;18.33;14.33;;;;;11.00;45.05;99519.78;5048462;28;45379;-78
2023/04/06 09:26:47;;;;;;;;;16.67;13.67;;;;;11.06;44.95;99520.41;5038804;28;45548;-78
2023/04/06 09:29:23;;;;;;;;;16.33;15.67;;;;;11.15;44.73;99519.22;5043525;28;45438;-77
2023/04/06 09:31:48;;;;;;;;;15.33;15.33;;;;;11.22;44.96;99520.75;5047074;28;45513;-78
2023/04/06 09:34:22;;;;;;;;;15.33;14.00;;;;;11.28;44.71;99517.00;5040524;28;45650;-77
2023/04/06 09:36:47;;;;;;;;;15.00;14.00;;;;;11.36;44.38;99520.22;5049174;28;45452;-76
2023/04/06 09:39:13;;;;;;;;;17.00;16.00;;;;;11.42;44.42;99512.06;5048942;28;45627;-79
2023/04/06 09:41:41;;;;;;;;;17.00;17.00;;;;;11.44;44.56;99516.38;5050208;28;45467;-78
2023/04/06 09:44:11;;;;;;;;;20.33;16.33;;;;;11.45;44.48;99514.59;5058207;28;45504;-79
2023/04/06 09:46:45;;;;;;;;;17.75;15.75;;;;;11.53;43.91;99512.53;5051144;27;45378;-78
2023/04/06 09:49:11;;;;;;;;;14.67;13.33;;;;;11.60;43.71;99505.22;5047297;28;45449;-78
2023/04/06 09:51:46;;;;;;;;;15.33;13.67;;;;;11.70;43.43;99503.97;5065095;28;48199;-78
2023/04/06 09:54:15;;;;;;;;;16.33;16.00;;;;;11.79;43.82;99501.88;5056479;28;45348;-78
2023/04/06 09:56:50;;;;;;;;;17.67;16.67;;;;;11.86;43.99;99487.50;5052197;28;45459;-79
2023/04/06 09:59:39;;;;;;;;;23.00;19.33;;;;;11.96;43.87;99495.06;5057909;28;45515;-78
2023/04/06 10:02:06;;;;;;;;;17.33;15.33;;;;;12.08;43.88;99491.91;5042418;28;47119;-79
2023/04/06 10:04:40;;;;;;;;;17.00;16.75;;;;;12.19;43.54;99492.38;5055467;28;45439;-78
2023/04/06 10:07:07;;;;;;;;;19.33;15.00;;;;;12.28;43.69;99491.97;5049420;28;45474;-79
2023/04/06 10:09:36;;;;;;;;;18.50;18.00;;;;;12.36;42.83;99494.31;5053192;28;45516;-79
2023/04/06 10:12:05;;;;;;;;;4.50;3.75;;;;;12.43;42.63;99486.03;5053686;28;45431;-79
2023/04/06 10:14:36;;;;;;;;;17.25;16.25;;;;;12.50;42.37;99484.00;5055500;28;45361;-78
2023/04/06 10:17:05;;;;;;;;;19.33;17.00;;;;;12.53;41.91;99486.53;5055919;28;45400;-78
2023/04/06 10:19:48;;;;;;;;;18.50;10.50;;;;;12.54;42.42;99483.84;5053191;28;45430;-78
2023/04/06 10:22:24;;;;;;;;;19.00;17.00;;;;;12.57;41.81;99477.53;5058025;28;45449;-78
2023/04/06 10:24:49;;;;;;;;;19.50;14.50;;;;;12.62;41.19;99485.28;5053563;28;45303;-78
2023/04/06 10:27:15;;;;;;;;;20.50;16.25;;;;;12.65;41.41;99479.84;5048016;28;45572;-77
2023/04/06 10:29:46;;;;;;;;;17.00;16.00;;;;;12.65;41.07;99479.84;5049519;28;45365;-78
2023/04/06 10:32:12;;;;;;;;;18.25;14.75;;;;;12.62;41.10;99477.34;5055836;28;45492;-78
2023/04/06 10:34:37;;;;;;;;;11.25;9.00;;;;;12.62;40.95;99478.19;5054370;28;45488;-78
2023/04/06 10:37:18;;;;;;;;;13.75;13.75;;;;;12.63;40.82;99474.63;5055549;28;45408;-78
2023/04/06 10:39:58;;;;;;;;;14.25;12.00;;;;;12.67;40.79;99475.38;5052678;28;45454;-78
2023/04/06 10:42:37;;;;;;;;;15.25;13.75;;;;;12.70;39.99;99477.88;5047808;28;46355;-78
2023/04/06 10:45:07;;;;;;;;;15.50;15.50;;;;;12.71;40.29;99469.03;5055967;28;45376;-78
2023/04/06 10:47:40;;;;;;;;;18.00;16.50;;;;;12.77;40.64;99466.94;5053251;28;45345;-78
2023/04/06 10:50:06;;;;;;;;;15.33;15.00;;;;;12.86;38.98;99465.72;5057328;28;45380;-78
2023/04/06 10:52:31;;;;;;;;;16.50;13.50;;;;;12.90;40.03;99467.31;5058499;28;46117;-78
2023/04/06 10:54:57;;;;;;;;;17.33;17.33;;;;;12.91;39.34;99467.19;5050296;28;45531;-78
2023/04/06 10:57:30;;;;;;;;;13.75;13.00;;;;;12.99;38.12;99461.59;5055558;28;45388;-78
2023/04/06 10:59:56;;;;;;;;;16.67;15.33;;;;;13.03;38.25;99475.56;5054448;28;45352;-78
2023/04/06 11:02:21;;;;;;;;;16.50;14.75;;;;;13.05;37.95;99471.91;5045976;28;45573;-78
2023/04/06 11:04:57;;;;;;;;;18.00;17.25;;;;;13.08;38.70;99449.72;5069422;28;46026;-78
2023/04/06 11:07:27;;;;;;;;;18.25;15.00;;;;;13.13;38.54;99453.03;5054938;28;45389;-78
2023/04/06 11:09:53;;;;;;;;;14.75;12.75;;;;;13.14;38.31;99452.09;5054881;28;45561;-78
2023/04/06 11:12:27;;;;;;;;;18.25;16.00;;;;;13.23;37.89;99444.66;5053827;28;45440;-78
2023/04/06 11:15:05;;;;;;;;;12.50;12.25;;;;;13.33;37.12;99441.56;5053156;28;45378;-78
2023/04/06 11:17:33;;;;;;;;;14.00;12.25;;;;;13.41;37.19;99444.69;5056003;28;45491;-78
2023/04/06 11:19:59;;;;;;;;;13.25;13.25;;;;;13.42;37.70;99427.88;5050684;28;45469;-78